createdAt,value
2018-08-20T00:00:35.491Z,53.65
2018-08-20T00:03:03.203Z,53.79
2018-08-20T00:05:33.848Z,53.45
2018-08-20T00:08:01.503Z,53.67
2018-08-20T00:10:29.186Z,53.62
2018-08-20T00:12:56.828Z,54.01
2018-08-20T00:15:24.486Z,53.87
2018-08-20T00:17:52.115Z,53.56
2018-08-20T00:20:19.787Z,53.84
2018-08-20T00:22:47.373Z,53.74
2018-08-20T00:25:17.535Z,53.81
2018-08-20T00:27:45.865Z,54.17
2018-08-20T00:30:15.419Z,53.50
2018-08-20T00:32:44.234Z,54.54
2018-08-20T00:35:14.380Z,54.37
2018-08-20T00:37:44.954Z,54.17
2018-08-20T00:40:12.624Z,54.25
2018-08-20T00:42:40.261Z,53.41
2018-08-20T00:45:08.451Z,53.26
2018-08-20T00:47:36.043Z,50.94
2018-08-20T00:50:04.369Z,49.79
2018-08-20T00:52:31.983Z,52.25
2018-08-20T00:54:59.599Z,52.25
2018-08-20T00:57:27.230Z,52.97
2018-08-20T00:59:54.877Z,53.38
2018-08-20T01:02:29.418Z,53.18
2018-08-20T01:04:57.859Z,53.01
2018-08-20T01:07:25.999Z,53.06
2018-08-20T01:09:53.999Z,52.63
2018-08-20T01:12:21.690Z,52.57
2018-08-20T01:14:49.330Z,53.16
2018-08-20T01:17:17.008Z,53.13
2018-08-20T01:19:44.758Z,52.48
2018-08-20T01:22:12.364Z,52.54
2018-08-20T01:24:40.044Z,52.37
2018-08-20T01:27:07.654Z,52.42
2018-08-20T01:29:35.226Z,52.06
2018-08-20T01:32:02.904Z,51.89
2018-08-20T01:34:30.511Z,52.42
2018-08-20T01:36:58.086Z,52.24
2018-08-20T01:39:25.793Z,52.17
2018-08-20T01:41:53.366Z,51.58
2018-08-20T01:44:21.044Z,52.15
2018-08-20T01:46:48.711Z,51.99
2018-08-20T01:49:16.282Z,52.19
2018-08-20T01:51:43.899Z,52.05
2018-08-20T01:54:11.522Z,51.53
2018-08-20T01:56:39.199Z,51.80
2018-08-20T01:59:06.802Z,51.15
2018-08-20T02:01:34.483Z,51.87
2018-08-20T02:04:02.151Z,51.84
2018-08-20T02:06:29.806Z,52.21
2018-08-20T02:08:57.544Z,51.83
2018-08-20T02:11:25.252Z,51.65
2018-08-20T02:13:52.946Z,51.67
2018-08-20T02:16:20.590Z,51.53
2018-08-20T02:18:48.155Z,51.27
2018-08-20T02:21:15.750Z,51.22
2018-08-20T02:23:43.457Z,51.34
2018-08-20T02:26:11.040Z,51.08
2018-08-20T02:28:38.654Z,51.18
2018-08-20T02:31:06.295Z,51.88
2018-08-20T02:33:33.981Z,50.93
2018-08-20T02:36:01.588Z,51.42
2018-08-20T02:38:29.728Z,50.72
2018-08-20T02:40:57.378Z,50.80
2018-08-20T02:43:25.017Z,51.17
2018-08-20T02:45:52.659Z,51.35
2018-08-20T02:48:20.352Z,50.86
2018-08-20T02:50:47.954Z,50.25
2018-08-20T02:53:15.615Z,50.65
2018-08-20T02:55:43.345Z,50.74
2018-08-20T02:58:10.982Z,50.95
2018-08-20T03:00:38.625Z,50.98
2018-08-20T03:03:06.314Z,51.14
2018-08-20T03:05:34.235Z,50.93
2018-08-20T03:08:01.931Z,50.96
2018-08-20T03:10:29.548Z,52.12
2018-08-20T03:12:57.208Z,51.91
2018-08-20T03:15:24.893Z,51.66
2018-08-20T03:17:52.551Z,51.71
2018-08-20T03:20:20.205Z,51.54
2018-08-20T03:22:47.935Z,50.72
2018-08-20T03:25:15.562Z,50.91
2018-08-20T03:27:43.150Z,51.21
2018-08-20T03:30:10.978Z,50.86
2018-08-20T03:32:39.504Z,50.74
2018-08-20T03:35:08.591Z,50.65
2018-08-20T03:37:36.339Z,51.22
2018-08-20T03:40:04.723Z,50.73
2018-08-20T03:42:32.323Z,50.49
2018-08-20T03:45:00.010Z,50.71
2018-08-20T03:47:27.662Z,50.89
2018-08-20T03:49:55.271Z,50.91
2018-08-20T03:52:22.935Z,51.06
2018-08-20T03:54:50.560Z,51.13
2018-08-20T03:57:18.169Z,50.97
2018-08-20T03:59:45.834Z,50.99
2018-08-20T04:02:13.462Z,51.22
2018-08-20T04:04:41.055Z,51.04
2018-08-20T04:07:08.730Z,51.37
2018-08-20T04:09:36.379Z,51.15
2018-08-20T04:12:04.441Z,50.71
2018-08-20T04:14:32.056Z,50.95
2018-08-20T04:17:00.043Z,51.10
2018-08-20T04:19:28.202Z,51.01
2018-08-20T04:21:55.860Z,50.94
2018-08-20T04:24:23.455Z,50.95
2018-08-20T04:26:51.483Z,50.96
2018-08-20T04:29:19.673Z,50.92
2018-08-20T04:31:47.470Z,50.88
2018-08-20T04:34:15.219Z,51.11
2018-08-20T04:36:42.924Z,50.90
2018-08-20T04:39:10.762Z,50.66
2018-08-20T04:41:38.814Z,51.34
2018-08-20T04:44:06.544Z,51.50
2018-08-20T04:46:34.211Z,51.82
2018-08-20T04:49:01.804Z,52.05
2018-08-20T04:51:29.637Z,51.78
2018-08-20T04:53:57.115Z,51.42
2018-08-20T04:56:25.383Z,51.88
2018-08-20T04:58:53.047Z,51.71
2018-08-20T05:01:20.750Z,51.71
2018-08-20T05:03:48.369Z,52.29
2018-08-20T05:06:16.182Z,52.18
2018-08-20T05:08:43.823Z,52.12
2018-08-20T05:11:11.480Z,52.08
2018-08-20T05:13:39.100Z,52.28
2018-08-20T05:16:06.725Z,52.71
2018-08-20T05:18:34.380Z,51.67
2018-08-20T05:21:02.163Z,51.58
2018-08-20T05:23:29.804Z,52.10
2018-08-20T05:25:57.455Z,52.16
2018-08-20T05:28:25.159Z,50.60
2018-08-20T05:30:52.795Z,50.92
2018-08-20T05:33:20.432Z,49.30
2018-08-20T05:35:48.066Z,49.32
2018-08-20T05:38:15.779Z,49.67
2018-08-20T05:40:43.364Z,49.37
2018-08-20T05:43:10.988Z,49.88
2018-08-20T05:45:38.652Z,49.87
2018-08-20T05:48:06.317Z,48.99
2018-08-20T05:50:33.983Z,48.31
2018-08-20T05:53:01.585Z,47.55
2018-08-20T05:55:29.630Z,47.72
2018-08-20T05:57:57.255Z,46.52
2018-08-20T06:00:24.927Z,46.83
2018-08-20T06:02:52.555Z,46.47
2018-08-20T06:05:20.202Z,46.81
2018-08-20T06:07:47.830Z,46.82
2018-08-20T06:10:15.447Z,46.05
2018-08-20T06:12:43.135Z,45.73
2018-08-20T06:15:13.468Z,45.18
2018-08-20T06:17:41.290Z,45.30
2018-08-20T06:20:14.165Z,44.71
2018-08-20T06:22:42.039Z,44.29
2018-08-20T06:25:10.899Z,43.73
2018-08-20T06:27:38.993Z,43.46
2018-08-20T06:30:07.603Z,43.33
2018-08-20T06:32:35.938Z,43.28
2018-08-20T06:35:04.007Z,42.43
2018-08-20T06:37:31.639Z,42.54
2018-08-20T06:39:59.252Z,42.19
2018-08-20T06:42:26.885Z,41.85
2018-08-20T06:44:54.499Z,41.29
2018-08-20T06:47:22.171Z,41.12
2018-08-20T06:49:49.783Z,39.47
2018-08-20T06:52:17.427Z,37.68
2018-08-20T06:54:45.020Z,37.75
2018-08-20T06:57:12.662Z,38.33
2018-08-20T06:59:40.358Z,37.64
2018-08-20T07:02:08.092Z,38.15
2018-08-20T07:04:35.749Z,36.63
2018-08-20T07:07:03.422Z,37.30
2018-08-20T07:09:31.031Z,36.83
2018-08-20T07:11:58.786Z,36.51
2018-08-20T07:14:26.411Z,36.68
2018-08-20T07:16:54.014Z,36.27
2018-08-20T07:19:21.857Z,35.78
2018-08-20T07:21:49.476Z,36.21
2018-08-20T07:24:17.102Z,36.36
2018-08-20T07:26:44.843Z,35.70
2018-08-20T07:29:13.170Z,35.42
2018-08-20T07:31:40.871Z,35.46
2018-08-20T07:34:08.550Z,34.76
2018-08-20T07:36:36.235Z,34.75
2018-08-20T07:39:04.093Z,34.97
2018-08-20T07:41:31.744Z,34.32
2018-08-20T07:43:59.392Z,34.45
2018-08-20T07:46:27.055Z,35.00
2018-08-20T07:48:55.468Z,34.90
2018-08-20T07:51:23.087Z,34.81
2018-08-20T07:53:50.692Z,34.25
2018-08-20T07:56:18.443Z,34.77
2018-08-20T07:58:46.072Z,34.61
2018-08-20T08:01:13.719Z,34.74
2018-08-20T08:03:41.452Z,34.59
2018-08-20T08:06:09.102Z,34.21
2018-08-20T08:08:36.833Z,34.17
2018-08-20T08:11:04.575Z,34.51
2018-08-20T08:13:32.219Z,33.98
2018-08-20T08:15:59.859Z,33.93
2018-08-20T08:18:27.624Z,33.95
2018-08-20T08:20:55.271Z,33.68
2018-08-20T08:23:22.919Z,31.92
2018-08-20T08:25:50.621Z,31.71
2018-08-20T08:28:18.311Z,30.83
2018-08-20T08:30:45.991Z,30.12
2018-08-20T08:33:13.687Z,29.51
2018-08-20T08:35:41.359Z,28.84
2018-08-20T08:38:09.137Z,28.46
2018-08-20T08:40:36.795Z,29.22
2018-08-20T08:43:04.528Z,28.88
2018-08-20T08:45:32.234Z,30.45
2018-08-20T08:47:59.899Z,29.31
2018-08-20T08:50:27.678Z,28.78
2018-08-20T08:52:55.371Z,28.04
2018-08-20T08:55:23.035Z,28.64
2018-08-20T08:57:50.621Z,29.00
2018-08-20T09:00:19.637Z,28.27
2018-08-20T09:02:47.380Z,29.05
2018-08-20T09:05:15.125Z,28.67
2018-08-20T09:07:43.237Z,27.78
2018-08-20T09:10:11.444Z,27.00
2018-08-20T09:12:39.161Z,27.40
2018-08-20T09:15:09.379Z,27.21
2018-08-20T09:17:37.090Z,26.56
2018-08-20T09:20:06.616Z,26.54
2018-08-20T09:22:34.281Z,26.49
2018-08-20T09:25:01.948Z,26.78
2018-08-20T09:27:29.571Z,26.73
2018-08-20T09:29:57.288Z,26.22
2018-08-20T09:32:25.093Z,26.37
2018-08-20T09:34:52.670Z,25.78
2018-08-20T09:37:20.377Z,26.43
2018-08-20T09:39:48.108Z,26.45
2018-08-20T09:42:15.752Z,26.82
2018-08-20T09:44:43.357Z,26.30
2018-08-20T09:47:11.131Z,25.92
2018-08-20T09:49:38.799Z,26.00
2018-08-20T09:52:06.746Z,26.28
2018-08-20T09:54:34.407Z,26.14
2018-08-20T09:57:02.075Z,25.89
2018-08-20T09:59:30.062Z,25.51
2018-08-20T10:01:57.736Z,25.60
2018-08-20T10:04:25.415Z,25.03
2018-08-20T10:06:53.023Z,24.03
2018-08-20T10:09:20.704Z,25.39
2018-08-20T10:11:48.296Z,25.32
2018-08-20T10:14:15.982Z,24.59
2018-08-20T10:16:43.679Z,24.29
2018-08-20T10:19:11.308Z,24.28
2018-08-20T10:21:38.962Z,23.62
2018-08-20T10:24:06.820Z,24.27
2018-08-20T10:26:34.440Z,24.31
2018-08-20T10:29:02.087Z,23.61
2018-08-20T10:31:29.760Z,23.34
2018-08-20T10:33:57.410Z,23.71
2018-08-20T10:36:25.041Z,23.88
2018-08-20T10:38:52.680Z,24.12
2018-08-20T10:41:20.372Z,23.60
2018-08-20T10:43:48.023Z,22.57
2018-08-20T10:46:24.141Z,21.82
2018-08-20T10:48:51.805Z,22.06
2018-08-20T10:51:19.389Z,21.35
2018-08-20T10:53:47.194Z,21.94
2018-08-20T10:56:14.815Z,21.66
2018-08-20T10:58:42.550Z,21.58
2018-08-20T11:01:10.191Z,21.59
2018-08-20T11:03:42.423Z,21.19
2018-08-20T11:06:10.158Z,20.08
2018-08-20T11:08:37.987Z,19.69
2018-08-20T11:11:06.192Z,19.88
2018-08-20T11:13:33.884Z,21.29
2018-08-20T11:16:01.489Z,20.74
2018-08-20T11:18:29.336Z,20.18
2018-08-20T11:20:56.895Z,19.56
2018-08-20T11:23:24.524Z,20.34
2018-08-20T11:25:52.164Z,22.63
2018-08-20T11:28:19.840Z,22.49
2018-08-20T11:30:47.473Z,22.20
2018-08-20T11:33:15.117Z,22.90
2018-08-20T11:35:42.756Z,21.20
2018-08-20T11:38:10.391Z,21.20
2018-08-20T11:40:38.112Z,20.99
2018-08-20T11:43:06.210Z,21.69
2018-08-20T11:45:33.845Z,20.80
2018-08-20T11:48:01.515Z,20.96
2018-08-20T11:50:29.154Z,22.75
2018-08-20T11:52:56.725Z,24.70
2018-08-20T11:55:24.352Z,24.09
2018-08-20T11:57:51.999Z,24.82
2018-08-20T12:00:19.612Z,26.48
2018-08-20T12:02:47.236Z,24.96
2018-08-20T12:05:14.937Z,22.66
2018-08-20T12:07:42.621Z,21.38
2018-08-20T12:10:10.703Z,20.30
2018-08-20T12:12:38.970Z,19.61
2018-08-20T12:15:08.391Z,19.45
2018-08-20T12:17:36.063Z,19.03
2018-08-20T12:20:04.176Z,20.62
2018-08-20T12:22:31.877Z,21.31
2018-08-20T12:24:59.542Z,22.09
2018-08-20T12:27:27.235Z,21.82
2018-08-20T12:29:54.865Z,21.56
2018-08-20T12:32:22.515Z,21.28
2018-08-20T12:34:50.136Z,20.22
2018-08-20T12:37:17.721Z,22.48
2018-08-20T12:39:45.364Z,21.25
2018-08-20T12:42:12.968Z,19.24
2018-08-20T12:44:40.571Z,17.65
2018-08-20T12:47:08.203Z,17.51
2018-08-20T12:49:35.892Z,16.37
2018-08-20T12:52:03.575Z,16.60
2018-08-20T12:54:31.179Z,16.53
2018-08-20T12:56:58.930Z,16.02
2018-08-20T12:59:26.555Z,16.51
2018-08-20T13:01:54.174Z,16.23
2018-08-20T13:04:21.864Z,16.08
2018-08-20T13:06:49.462Z,16.58
2018-08-20T13:09:17.133Z,17.24
2018-08-20T13:11:44.787Z,16.65
2018-08-20T13:14:12.431Z,16.60
2018-08-20T13:16:40.096Z,16.94
2018-08-20T13:19:07.807Z,16.55
2018-08-20T13:21:35.549Z,16.58
2018-08-20T13:24:03.222Z,16.41
2018-08-20T13:26:30.863Z,17.08
2018-08-20T13:28:58.474Z,17.43
2018-08-20T13:31:26.112Z,17.00
2018-08-20T13:33:53.769Z,16.68
2018-08-20T13:36:21.353Z,16.38
2018-08-20T13:38:48.992Z,17.26
2018-08-20T13:41:16.648Z,19.27
2018-08-20T13:43:44.283Z,21.09
2018-08-20T13:46:11.935Z,21.84
2018-08-20T13:48:39.665Z,20.36
2018-08-20T13:51:07.276Z,19.67
2018-08-20T13:53:34.943Z,18.83
2018-08-20T13:56:02.693Z,18.94
2018-08-20T13:58:30.427Z,18.67
2018-08-20T14:00:58.168Z,18.67
2018-08-20T14:03:25.826Z,18.86
2018-08-20T14:05:53.467Z,18.10
2018-08-20T14:08:21.113Z,19.08
2018-08-20T14:10:48.747Z,22.37
2018-08-20T14:13:16.370Z,24.07
2018-08-20T14:15:44.159Z,24.94
2018-08-20T14:18:11.788Z,24.16
2018-08-20T14:20:52.712Z,24.78
2018-08-20T14:23:20.464Z,24.28
2018-08-20T14:25:48.078Z,25.04
2018-08-20T14:28:15.737Z,23.23
2018-08-20T14:30:43.387Z,24.24
2018-08-20T14:33:10.984Z,24.56
2018-08-20T14:35:38.615Z,23.66
2018-08-20T14:38:06.384Z,24.72
2018-08-20T14:40:34.040Z,25.45
2018-08-20T14:43:01.648Z,26.56
2018-08-20T14:45:34.893Z,26.76
2018-08-20T14:48:02.521Z,28.44
2018-08-20T14:50:30.120Z,29.15
2018-08-20T14:52:57.808Z,30.41
2018-08-20T14:55:25.517Z,31.04
2018-08-20T14:57:53.136Z,30.64
2018-08-20T15:00:20.819Z,31.79
2018-08-20T15:02:48.490Z,32.10
2018-08-20T15:05:16.112Z,32.26
2018-08-20T15:07:43.766Z,31.84
2018-08-20T15:10:11.386Z,32.69
2018-08-20T15:12:39.012Z,32.95
2018-08-20T15:15:07.920Z,32.63
2018-08-20T15:17:35.535Z,33.09
2018-08-20T15:20:03.705Z,33.23
2018-08-20T15:22:31.442Z,33.61
2018-08-20T15:24:59.049Z,34.19
2018-08-20T15:27:26.736Z,34.23
2018-08-20T15:29:54.396Z,33.97
2018-08-20T15:32:22.169Z,34.58
2018-08-20T15:34:49.756Z,34.29
2018-08-20T15:37:17.412Z,35.04
2018-08-20T15:39:45.070Z,35.24
2018-08-20T15:42:12.691Z,35.80
2018-08-20T15:44:40.393Z,35.76
2018-08-20T15:47:08.189Z,35.58
2018-08-20T15:49:35.868Z,35.75
2018-08-20T15:52:03.606Z,35.87
2018-08-20T15:54:31.196Z,35.63
2018-08-20T15:56:58.884Z,35.32
2018-08-20T15:59:26.619Z,35.51
2018-08-20T16:01:54.284Z,35.24
2018-08-20T16:04:21.905Z,35.18
2018-08-20T16:06:49.607Z,35.10
2018-08-20T16:09:17.263Z,34.79
2018-08-20T16:11:44.967Z,34.75
2018-08-20T16:14:12.632Z,34.82
2018-08-20T16:16:40.321Z,34.56
2018-08-20T16:19:07.854Z,35.19
2018-08-20T16:21:35.477Z,35.29
2018-08-20T16:24:03.204Z,35.03
2018-08-20T16:26:30.795Z,35.58
2018-08-20T16:28:58.439Z,35.61
2018-08-20T16:31:26.129Z,35.99
2018-08-20T16:33:53.744Z,36.04
2018-08-20T16:36:21.459Z,35.98
2018-08-20T16:38:49.131Z,35.55
2018-08-20T16:41:16.829Z,35.70
2018-08-20T16:43:44.548Z,35.78
2018-08-20T16:46:12.250Z,36.25
2018-08-20T16:48:40.076Z,36.18
2018-08-20T16:51:07.943Z,36.55
2018-08-20T16:53:35.811Z,36.40
2018-08-20T16:56:03.797Z,36.66
2018-08-20T16:58:31.474Z,35.96
2018-08-20T17:00:59.156Z,36.40
2018-08-20T17:03:26.955Z,36.35
2018-08-20T17:05:56.779Z,35.86
2018-08-20T17:08:32.876Z,35.63
2018-08-20T17:11:00.600Z,35.54
2018-08-20T17:13:28.736Z,36.18
2018-08-20T17:15:56.386Z,36.09
2018-08-20T17:18:24.072Z,36.26
2018-08-20T17:20:51.750Z,36.91
2018-08-20T17:23:20.898Z,36.85
2018-08-20T17:25:48.623Z,37.17
2018-08-20T17:28:20.508Z,37.19
2018-08-20T17:30:48.642Z,37.66
2018-08-20T17:33:16.324Z,37.71
2018-08-20T17:35:44.016Z,36.86
2018-08-20T17:38:11.640Z,37.41
2018-08-20T17:40:39.889Z,37.56
2018-08-20T17:43:08.246Z,37.56
2018-08-20T17:45:35.898Z,37.74
2018-08-20T17:48:03.631Z,37.79
2018-08-20T17:50:39.463Z,37.52
2018-08-20T17:53:07.081Z,38.07
2018-08-20T17:55:34.842Z,37.85
2018-08-20T17:58:02.488Z,38.13
2018-08-20T18:00:38.404Z,38.40
2018-08-20T18:03:13.700Z,38.44
2018-08-20T18:05:42.177Z,39.18
2018-08-20T18:08:09.798Z,38.65
2018-08-20T18:10:37.420Z,38.87
2018-08-20T18:13:05.150Z,39.03
2018-08-20T18:15:32.760Z,38.84
2018-08-20T18:18:00.443Z,39.38
2018-08-20T18:20:32.419Z,39.36
2018-08-20T18:23:00.105Z,39.54
2018-08-20T18:25:33.400Z,39.86
2018-08-20T18:28:01.103Z,39.62
2018-08-20T18:30:28.821Z,40.12
2018-08-20T18:32:56.477Z,40.17
2018-08-20T18:35:29.536Z,40.41
2018-08-20T18:37:57.329Z,40.44
2018-08-20T18:40:24.946Z,40.50
2018-08-20T18:42:52.731Z,40.35
2018-08-20T18:45:20.520Z,40.63
2018-08-20T18:47:48.117Z,40.37
2018-08-20T18:50:15.836Z,40.50
2018-08-20T18:52:43.534Z,40.66
2018-08-20T18:55:11.147Z,40.79
2018-08-20T18:57:38.842Z,41.17
2018-08-20T19:00:08.931Z,41.51
2018-08-20T19:02:42.659Z,41.43
2018-08-20T19:05:12.506Z,41.86
2018-08-20T19:07:40.324Z,42.24
2018-08-20T19:10:15.439Z,41.91
2018-08-20T19:12:43.196Z,42.63
2018-08-20T19:15:23.778Z,42.56
2018-08-20T19:17:51.886Z,42.65
2018-08-20T19:20:19.710Z,42.98
2018-08-20T19:22:47.378Z,43.38
2018-08-20T19:25:14.989Z,44.19
2018-08-20T19:27:42.737Z,44.54
2018-08-20T19:30:17.161Z,44.68
2018-08-20T19:32:45.398Z,45.04
2018-08-20T19:35:13.208Z,44.80
2018-08-20T19:37:41.007Z,45.11
2018-08-20T19:40:09.002Z,45.89
2018-08-20T19:42:36.635Z,45.77
2018-08-20T19:45:06.236Z,45.42
2018-08-20T19:47:34.179Z,46.34
2018-08-20T19:50:01.828Z,46.19
2018-08-20T19:52:29.753Z,46.10
2018-08-20T19:55:06.260Z,46.20
2018-08-20T19:57:34.175Z,46.62
2018-08-20T20:00:02.063Z,46.33
2018-08-20T20:02:29.747Z,46.60
2018-08-20T20:05:03.572Z,46.69
2018-08-20T20:07:31.553Z,46.47
2018-08-20T20:09:59.236Z,46.50
2018-08-20T20:12:27.039Z,46.32
2018-08-20T20:14:57.547Z,46.72
2018-08-20T20:17:25.466Z,46.63
2018-08-20T20:19:53.487Z,47.06
2018-08-20T20:22:21.250Z,46.88
2018-08-20T20:24:49.034Z,47.21
2018-08-20T20:27:16.944Z,47.14
2018-08-20T20:29:44.564Z,46.44
2018-08-20T20:32:12.295Z,46.74
2018-08-20T20:34:40.085Z,46.57
2018-08-20T20:37:07.740Z,46.24
2018-08-20T20:39:36.064Z,46.31
2018-08-20T20:42:03.790Z,46.43
2018-08-20T20:44:31.463Z,47.00
2018-08-20T20:46:59.150Z,46.85
2018-08-20T20:49:26.896Z,46.79
2018-08-20T20:51:54.554Z,46.28
2018-08-20T20:54:22.208Z,46.61
2018-08-20T20:56:49.892Z,46.62
2018-08-20T20:59:17.606Z,46.53
2018-08-20T21:01:45.301Z,46.41
2018-08-20T21:04:12.978Z,46.91
2018-08-20T21:06:41.523Z,47.26
2018-08-20T21:09:11.407Z,47.29
2018-08-20T21:11:39.084Z,47.73
2018-08-20T21:14:06.803Z,47.11
2018-08-20T21:16:36.283Z,47.44
2018-08-20T21:19:04.741Z,47.41
2018-08-20T21:21:32.783Z,47.72
2018-08-20T21:24:00.493Z,47.97
2018-08-20T21:26:28.287Z,47.99
2018-08-20T21:28:56.201Z,47.70
2018-08-20T21:31:24.996Z,47.99
2018-08-20T21:34:00.094Z,47.86
2018-08-20T21:36:27.819Z,47.81
2018-08-20T21:38:55.480Z,47.89
2018-08-20T21:41:24.593Z,47.56
2018-08-20T21:43:52.426Z,47.42
2018-08-20T21:46:20.226Z,47.94
2018-08-20T21:48:48.236Z,47.55
2018-08-20T21:51:17.906Z,47.35
2018-08-20T21:53:45.555Z,47.50
2018-08-20T21:56:13.400Z,47.11
2018-08-20T21:58:42.358Z,47.43
2018-08-20T22:01:11.799Z,47.25
2018-08-20T22:03:40.371Z,47.23
2018-08-20T22:06:08.141Z,47.34
2018-08-20T22:08:35.850Z,47.78
2018-08-20T22:11:03.595Z,47.58
2018-08-20T22:13:31.241Z,47.59
2018-08-20T22:16:17.989Z,47.59
2018-08-20T22:18:47.518Z,47.78
2018-08-20T22:21:16.322Z,48.06
2018-08-20T22:23:44.853Z,48.54
2018-08-20T22:26:14.031Z,48.23
2018-08-20T22:28:42.063Z,48.01
2018-08-20T22:31:09.849Z,48.18
2018-08-20T22:33:37.958Z,48.89
2018-08-20T22:36:06.210Z,48.40
2018-08-20T22:38:50.915Z,48.71
2018-08-20T22:41:18.830Z,48.53
2018-08-20T22:43:46.530Z,48.77
2018-08-20T22:46:14.256Z,48.79
2018-08-20T22:48:41.940Z,48.93
2018-08-20T22:51:13.820Z,48.67
2018-08-20T22:53:47.766Z,48.80
2018-08-20T22:56:34.882Z,48.37
2018-08-20T22:59:05.994Z,48.09
2018-08-20T23:01:33.773Z,48.31
2018-08-20T23:04:01.547Z,48.30
2018-08-20T23:06:29.544Z,48.53
2018-08-20T23:08:57.334Z,48.77
2018-08-20T23:11:40.105Z,48.72
2018-08-20T23:14:09.527Z,49.26
2018-08-20T23:16:37.486Z,49.23
2018-08-20T23:19:05.226Z,49.56
2018-08-20T23:21:42.675Z,49.19
2018-08-20T23:24:11.234Z,49.73
2018-08-20T23:26:39.038Z,49.81
2018-08-20T23:29:06.851Z,49.09
2018-08-20T23:31:34.589Z,49.34
2018-08-20T23:34:02.273Z,49.26
2018-08-20T23:36:29.943Z,49.26
2018-08-20T23:38:57.654Z,49.81
2018-08-20T23:41:25.379Z,49.37
2018-08-20T23:43:57.579Z,49.49
2018-08-20T23:46:36.178Z,49.56
2018-08-20T23:49:03.956Z,49.15
2018-08-20T23:51:31.701Z,49.36
2018-08-20T23:53:59.383Z,49.61
2018-08-20T23:56:27.054Z,49.18
2018-08-20T23:58:54.666Z,49.46
